sensor_id;sensor_type;location;lat;lon;timestamp;P1;durP1;ratioP1;P2;durP2;ratioP2
74371;SDS011;62885;51.374;6.170;2023-02-22T00:01:51;30.25;;;12.20;;
74371;SDS011;62885;51.374;6.170;2023-02-22T00:04:34;34.60;;;14.13;;
74371;SDS011;62885;51.374;6.170;2023-02-22T00:07:00;30.70;;;12.57;;
74371;SDS011;62885;51.374;6.170;2023-02-22T00:09:26;33.45;;;14.10;;
74371;SDS011;62885;51.374;6.170;2023-02-22T00:11:51;41.90;;;14.15;;
74371;SDS011;62885;51.374;6.170;2023-02-22T00:14:17;34.63;;;14.48;;
74371;SDS011;62885;51.374;6.170;2023-02-22T00:16:44;28.55;;;12.30;;
74371;SDS011;62885;51.374;6.170;2023-02-22T00:19:09;30.63;;;13.77;;
74371;SDS011;62885;51.374;6.170;2023-02-22T00:21:35;33.88;;;13.82;;
74371;SDS011;62885;51.374;6.170;2023-02-22T00:24:01;37.08;;;14.90;;
74371;SDS011;62885;51.374;6.170;2023-02-22T00:26:46;37.60;;;14.18;;
74371;SDS011;62885;51.374;6.170;2023-02-22T00:29:12;33.13;;;14.48;;
74371;SDS011;62885;51.374;6.170;2023-02-22T00:31:37;38.65;;;16.45;;
74371;SDS011;62885;51.374;6.170;2023-02-22T00:34:03;36.90;;;13.40;;
74371;SDS011;62885;51.374;6.170;2023-02-22T00:36:28;38.33;;;15.15;;
74371;SDS011;62885;51.374;6.170;2023-02-22T00:38:54;45.35;;;15.75;;
74371;SDS011;62885;51.374;6.170;2023-02-22T00:41:19;38.20;;;15.07;;
74371;SDS011;62885;51.374;6.170;2023-02-22T00:43:45;37.80;;;14.68;;
74371;SDS011;62885;51.374;6.170;2023-02-22T00:46:13;35.72;;;14.00;;
74371;SDS011;62885;51.374;6.170;2023-02-22T00:48:39;35.53;;;13.35;;
74371;SDS011;62885;51.374;6.170;2023-02-22T00:51:04;43.03;;;16.33;;
74371;SDS011;62885;51.374;6.170;2023-02-22T00:53:30;36.45;;;14.18;;
74371;SDS011;62885;51.374;6.170;2023-02-22T00:55:56;36.58;;;14.27;;
74371;SDS011;62885;51.374;6.170;2023-02-22T00:58:21;37.10;;;16.50;;
74371;SDS011;62885;51.374;6.170;2023-02-22T01:00:48;37.10;;;15.05;;
74371;SDS011;62885;51.374;6.170;2023-02-22T01:03:16;37.20;;;13.60;;
74371;SDS011;62885;51.374;6.170;2023-02-22T01:05:43;40.90;;;14.82;;
74371;SDS011;62885;51.374;6.170;2023-02-22T01:08:09;40.80;;;14.82;;
74371;SDS011;62885;51.374;6.170;2023-02-22T01:10:36;41.40;;;16.23;;
74371;SDS011;62885;51.374;6.170;2023-02-22T01:13:03;40.45;;;15.65;;
74371;SDS011;62885;51.374;6.170;2023-02-22T01:15:32;39.30;;;15.10;;
74371;SDS011;62885;51.374;6.170;2023-02-22T01:18:02;39.95;;;14.93;;
74371;SDS011;62885;51.374;6.170;2023-02-22T01:20:29;38.70;;;15.20;;
74371;SDS011;62885;51.374;6.170;2023-02-22T01:22:55;41.20;;;15.75;;
74371;SDS011;62885;51.374;6.170;2023-02-22T01:25:23;47.00;;;17.77;;
74371;SDS011;62885;51.374;6.170;2023-02-22T01:27:51;38.20;;;15.02;;
74371;SDS011;62885;51.374;6.170;2023-02-22T01:30:20;49.50;;;15.05;;
74371;SDS011;62885;51.374;6.170;2023-02-22T01:32:48;43.30;;;15.55;;
74371;SDS011;62885;51.374;6.170;2023-02-22T01:35:15;37.30;;;15.73;;
74371;SDS011;62885;51.374;6.170;2023-02-22T01:37:43;41.47;;;17.42;;
74371;SDS011;62885;51.374;6.170;2023-02-22T01:40:09;44.88;;;15.73;;
74371;SDS011;62885;51.374;6.170;2023-02-22T01:42:40;38.03;;;16.38;;
74371;SDS011;62885;51.374;6.170;2023-02-22T01:47:54;45.60;;;15.13;;
74371;SDS011;62885;51.374;6.170;2023-02-22T01:50:27;45.63;;;16.73;;
74371;SDS011;62885;51.374;6.170;2023-02-22T01:52:55;43.25;;;18.50;;
74371;SDS011;62885;51.374;6.170;2023-02-22T01:55:21;46.80;;;17.75;;
74371;SDS011;62885;51.374;6.170;2023-02-22T01:57:47;43.80;;;15.02;;
74371;SDS011;62885;51.374;6.170;2023-02-22T02:00:14;48.03;;;17.20;;
74371;SDS011;62885;51.374;6.170;2023-02-22T02:02:44;48.10;;;17.05;;
74371;SDS011;62885;51.374;6.170;2023-02-22T02:05:13;46.90;;;17.33;;
74371;SDS011;62885;51.374;6.170;2023-02-22T02:07:39;41.00;;;16.88;;
74371;SDS011;62885;51.374;6.170;2023-02-22T02:10:08;47.65;;;16.88;;
74371;SDS011;62885;51.374;6.170;2023-02-22T02:12:38;53.83;;;17.90;;
74371;SDS011;62885;51.374;6.170;2023-02-22T02:15:24;42.75;;;17.52;;
74371;SDS011;62885;51.374;6.170;2023-02-22T02:17:57;39.60;;;15.70;;
74371;SDS011;62885;51.374;6.170;2023-02-22T02:36:58;55.75;;;18.25;;
74371;SDS011;62885;51.374;6.170;2023-02-22T02:39:40;46.67;;;16.98;;
74371;SDS011;62885;51.374;6.170;2023-02-22T02:42:21;44.33;;;16.45;;
74371;SDS011;62885;51.374;6.170;2023-02-22T02:44:57;44.55;;;15.68;;
74371;SDS011;62885;51.374;6.170;2023-02-22T02:47:33;44.35;;;15.50;;
74371;SDS011;62885;51.374;6.170;2023-02-22T02:50:17;41.30;;;14.27;;
74371;SDS011;62885;51.374;6.170;2023-02-22T02:52:48;50.10;;;15.15;;
74371;SDS011;62885;51.374;6.170;2023-02-22T02:55:17;44.30;;;15.32;;
74371;SDS011;62885;51.374;6.170;2023-02-22T02:57:43;43.25;;;14.93;;
74371;SDS011;62885;51.374;6.170;2023-02-22T03:00:09;41.28;;;16.08;;
74371;SDS011;62885;51.374;6.170;2023-02-22T03:08:12;40.03;;;15.02;;
74371;SDS011;62885;51.374;6.170;2023-02-22T03:16:13;38.90;;;15.13;;
74371;SDS011;62885;51.374;6.170;2023-02-22T03:21:34;41.75;;;13.70;;
74371;SDS011;62885;51.374;6.170;2023-02-22T03:24:21;42.03;;;14.02;;
74371;SDS011;62885;51.374;6.170;2023-02-22T03:29:23;39.33;;;13.27;;
74371;SDS011;62885;51.374;6.170;2023-02-22T03:31:55;44.83;;;14.18;;
74371;SDS011;62885;51.374;6.170;2023-02-22T03:34:26;38.53;;;12.75;;
74371;SDS011;62885;51.374;6.170;2023-02-22T03:36:58;43.10;;;13.68;;
74371;SDS011;62885;51.374;6.170;2023-02-22T03:39:28;37.10;;;12.57;;
74371;SDS011;62885;51.374;6.170;2023-02-22T03:42:00;35.80;;;13.25;;
74371;SDS011;62885;51.374;6.170;2023-02-22T03:44:30;38.00;;;14.18;;
74371;SDS011;62885;51.374;6.170;2023-02-22T03:47:03;33.88;;;12.38;;
74371;SDS011;62885;51.374;6.170;2023-02-22T03:49:50;35.38;;;13.45;;
74371;SDS011;62885;51.374;6.170;2023-02-22T03:52:24;34.55;;;11.77;;
74371;SDS011;62885;51.374;6.170;2023-02-22T03:54:50;42.92;;;14.32;;
74371;SDS011;62885;51.374;6.170;2023-02-22T03:57:25;43.10;;;13.88;;
74371;SDS011;62885;51.374;6.170;2023-02-22T04:00:14;37.95;;;12.30;;
74371;SDS011;62885;51.374;6.170;2023-02-22T04:02:42;41.30;;;14.80;;
74371;SDS011;62885;51.374;6.170;2023-02-22T04:05:08;34.28;;;12.52;;
74371;SDS011;62885;51.374;6.170;2023-02-22T04:07:34;34.60;;;12.18;;
74371;SDS011;62885;51.374;6.170;2023-02-22T04:10:00;38.05;;;13.82;;
74371;SDS011;62885;51.374;6.170;2023-02-22T04:12:26;34.53;;;12.15;;
74371;SDS011;62885;51.374;6.170;2023-02-22T04:14:52;35.30;;;11.82;;
74371;SDS011;62885;51.374;6.170;2023-02-22T04:17:17;33.00;;;12.30;;
74371;SDS011;62885;51.374;6.170;2023-02-22T04:19:43;35.05;;;12.95;;
74371;SDS011;62885;51.374;6.170;2023-02-22T04:22:09;35.53;;;10.85;;
74371;SDS011;62885;51.374;6.170;2023-02-22T04:24:35;32.67;;;11.70;;
74371;SDS011;62885;51.374;6.170;2023-02-22T04:27:00;28.17;;;11.00;;
74371;SDS011;62885;51.374;6.170;2023-02-22T04:29:26;29.33;;;11.05;;
74371;SDS011;62885;51.374;6.170;2023-02-22T04:31:51;30.50;;;11.40;;
74371;SDS011;62885;51.374;6.170;2023-02-22T04:34:16;30.85;;;10.43;;
74371;SDS011;62885;51.374;6.170;2023-02-22T04:36:42;34.60;;;11.40;;
74371;SDS011;62885;51.374;6.170;2023-02-22T04:39:08;30.20;;;10.50;;
74371;SDS011;62885;51.374;6.170;2023-02-22T04:41:34;29.42;;;10.48;;
74371;SDS011;62885;51.374;6.170;2023-02-22T04:43:59;35.33;;;11.07;;
74371;SDS011;62885;51.374;6.170;2023-02-22T04:46:24;34.67;;;11.48;;
74371;SDS011;62885;51.374;6.170;2023-02-22T04:48:50;29.33;;;10.48;;
74371;SDS011;62885;51.374;6.170;2023-02-22T04:51:16;30.58;;;11.70;;
74371;SDS011;62885;51.374;6.170;2023-02-22T04:53:41;31.77;;;10.82;;
74371;SDS011;62885;51.374;6.170;2023-02-22T04:56:06;35.28;;;11.45;;
74371;SDS011;62885;51.374;6.170;2023-02-22T04:58:32;32.58;;;11.48;;
74371;SDS011;62885;51.374;6.170;2023-02-22T05:00:57;30.55;;;10.50;;
74371;SDS011;62885;51.374;6.170;2023-02-22T05:03:23;26.02;;;10.25;;
74371;SDS011;62885;51.374;6.170;2023-02-22T05:05:50;29.30;;;9.98;;
74371;SDS011;62885;51.374;6.170;2023-02-22T05:08:16;29.73;;;10.35;;
74371;SDS011;62885;51.374;6.170;2023-02-22T05:10:41;27.17;;;10.50;;
74371;SDS011;62885;51.374;6.170;2023-02-22T05:13:08;25.90;;;9.68;;
74371;SDS011;62885;51.374;6.170;2023-02-22T05:15:33;26.23;;;9.85;;
74371;SDS011;62885;51.374;6.170;2023-02-22T05:17:59;29.20;;;11.32;;
74371;SDS011;62885;51.374;6.170;2023-02-22T05:20:28;25.95;;;10.40;;
74371;SDS011;62885;51.374;6.170;2023-02-22T05:22:56;29.20;;;10.88;;
74371;SDS011;62885;51.374;6.170;2023-02-22T05:25:23;27.95;;;10.10;;
74371;SDS011;62885;51.374;6.170;2023-02-22T05:27:49;21.88;;;10.25;;
74371;SDS011;62885;51.374;6.170;2023-02-22T05:30:16;29.75;;;11.77;;
74371;SDS011;62885;51.374;6.170;2023-02-22T05:32:42;27.30;;;10.77;;
74371;SDS011;62885;51.374;6.170;2023-02-22T05:35:07;31.10;;;11.75;;
74371;SDS011;62885;51.374;6.170;2023-02-22T05:37:32;29.98;;;10.88;;
74371;SDS011;62885;51.374;6.170;2023-02-22T05:39:58;27.45;;;10.40;;
74371;SDS011;62885;51.374;6.170;2023-02-22T05:42:23;34.45;;;11.77;;
74371;SDS011;62885;51.374;6.170;2023-02-22T05:44:49;31.60;;;12.05;;
74371;SDS011;62885;51.374;6.170;2023-02-22T05:47:14;28.92;;;11.52;;
74371;SDS011;62885;51.374;6.170;2023-02-22T05:49:40;29.58;;;11.85;;
74371;SDS011;62885;51.374;6.170;2023-02-22T05:52:05;30.33;;;11.27;;
74371;SDS011;62885;51.374;6.170;2023-02-22T05:54:31;32.42;;;10.68;;
74371;SDS011;62885;51.374;6.170;2023-02-22T05:56:56;28.83;;;11.48;;
74371;SDS011;62885;51.374;6.170;2023-02-22T05:59:21;24.75;;;9.80;;
74371;SDS011;62885;51.374;6.170;2023-02-22T06:01:47;25.60;;;11.13;;
74371;SDS011;62885;51.374;6.170;2023-02-22T06:04:12;24.50;;;9.50;;
74371;SDS011;62885;51.374;6.170;2023-02-22T06:06:37;26.23;;;10.48;;
74371;SDS011;62885;51.374;6.170;2023-02-22T06:09:03;23.35;;;9.90;;
74371;SDS011;62885;51.374;6.170;2023-02-22T06:11:28;27.85;;;10.50;;
74371;SDS011;62885;51.374;6.170;2023-02-22T06:13:53;24.05;;;11.73;;
74371;SDS011;62885;51.374;6.170;2023-02-22T06:16:19;28.48;;;10.90;;
74371;SDS011;62885;51.374;6.170;2023-02-22T06:18:46;24.33;;;10.30;;
74371;SDS011;62885;51.374;6.170;2023-02-22T06:21:12;29.58;;;11.52;;
74371;SDS011;62885;51.374;6.170;2023-02-22T06:23:39;28.30;;;10.25;;
74371;SDS011;62885;51.374;6.170;2023-02-22T06:26:04;25.77;;;10.85;;
74371;SDS011;62885;51.374;6.170;2023-02-22T06:28:30;23.52;;;8.98;;
74371;SDS011;62885;51.374;6.170;2023-02-22T06:30:55;25.10;;;9.63;;
74371;SDS011;62885;51.374;6.170;2023-02-22T06:33:21;25.35;;;10.48;;
74371;SDS011;62885;51.374;6.170;2023-02-22T06:35:46;19.23;;;8.40;;
74371;SDS011;62885;51.374;6.170;2023-02-22T06:38:11;21.33;;;8.50;;
74371;SDS011;62885;51.374;6.170;2023-02-22T06:40:44;22.25;;;9.57;;
74371;SDS011;62885;51.374;6.170;2023-02-22T06:43:10;22.92;;;10.45;;
74371;SDS011;62885;51.374;6.170;2023-02-22T06:45:36;20.90;;;8.38;;
74371;SDS011;62885;51.374;6.170;2023-02-22T06:48:01;25.52;;;10.50;;
74371;SDS011;62885;51.374;6.170;2023-02-22T06:50:27;25.08;;;10.05;;
74371;SDS011;62885;51.374;6.170;2023-02-22T06:52:54;22.05;;;9.80;;
74371;SDS011;62885;51.374;6.170;2023-02-22T06:55:21;24.02;;;9.75;;
74371;SDS011;62885;51.374;6.170;2023-02-22T06:57:48;22.50;;;9.52;;
74371;SDS011;62885;51.374;6.170;2023-02-22T07:00:14;27.80;;;10.95;;
74371;SDS011;62885;51.374;6.170;2023-02-22T07:02:41;23.80;;;9.02;;
74371;SDS011;62885;51.374;6.170;2023-02-22T07:05:08;20.13;;;8.77;;
74371;SDS011;62885;51.374;6.170;2023-02-22T07:07:35;23.55;;;9.30;;
74371;SDS011;62885;51.374;6.170;2023-02-22T07:10:02;24.08;;;9.90;;
74371;SDS011;62885;51.374;6.170;2023-02-22T07:12:28;22.27;;;8.75;;
74371;SDS011;62885;51.374;6.170;2023-02-22T07:14:56;23.77;;;9.55;;
74371;SDS011;62885;51.374;6.170;2023-02-22T07:17:21;27.77;;;9.20;;
74371;SDS011;62885;51.374;6.170;2023-02-22T07:19:47;25.33;;;10.30;;
74371;SDS011;62885;51.374;6.170;2023-02-22T07:22:12;26.15;;;10.88;;
74371;SDS011;62885;51.374;6.170;2023-02-22T07:24:37;27.42;;;10.05;;
74371;SDS011;62885;51.374;6.170;2023-02-22T07:27:04;22.85;;;9.43;;
74371;SDS011;62885;51.374;6.170;2023-02-22T07:29:30;21.65;;;9.35;;
74371;SDS011;62885;51.374;6.170;2023-02-22T07:31:55;22.10;;;8.68;;
74371;SDS011;62885;51.374;6.170;2023-02-22T07:34:21;27.42;;;10.55;;
74371;SDS011;62885;51.374;6.170;2023-02-22T07:36:47;44.67;;;19.38;;
74371;SDS011;62885;51.374;6.170;2023-02-22T07:39:12;23.48;;;10.30;;
74371;SDS011;62885;51.374;6.170;2023-02-22T07:41:38;19.90;;;8.50;;
74371;SDS011;62885;51.374;6.170;2023-02-22T07:44:03;23.23;;;9.30;;
74371;SDS011;62885;51.374;6.170;2023-02-22T07:46:29;19.33;;;8.55;;
74371;SDS011;62885;51.374;6.170;2023-02-22T07:48:54;21.88;;;9.27;;
74371;SDS011;62885;51.374;6.170;2023-02-22T07:51:19;22.08;;;10.07;;
74371;SDS011;62885;51.374;6.170;2023-02-22T07:53:45;22.27;;;8.77;;
74371;SDS011;62885;51.374;6.170;2023-02-22T07:56:10;18.77;;;9.27;;
74371;SDS011;62885;51.374;6.170;2023-02-22T07:58:35;20.27;;;8.60;;
74371;SDS011;62885;51.374;6.170;2023-02-22T08:01:01;19.20;;;8.98;;
74371;SDS011;62885;51.374;6.170;2023-02-22T08:03:26;23.98;;;9.50;;
74371;SDS011;62885;51.374;6.170;2023-02-22T08:05:55;20.83;;;8.95;;
74371;SDS011;62885;51.374;6.170;2023-02-22T08:08:22;23.92;;;9.18;;
74371;SDS011;62885;51.374;6.170;2023-02-22T08:10:48;19.92;;;9.68;;
74371;SDS011;62885;51.374;6.170;2023-02-22T08:13:15;18.92;;;9.07;;
74371;SDS011;62885;51.374;6.170;2023-02-22T08:15:41;18.10;;;8.00;;
74371;SDS011;62885;51.374;6.170;2023-02-22T08:18:09;17.63;;;7.78;;
74371;SDS011;62885;51.374;6.170;2023-02-22T08:20:36;18.63;;;9.15;;
74371;SDS011;62885;51.374;6.170;2023-02-22T08:23:03;19.33;;;9.23;;
74371;SDS011;62885;51.374;6.170;2023-02-22T08:25:29;27.58;;;12.23;;
74371;SDS011;62885;51.374;6.170;2023-02-22T08:27:56;25.58;;;12.30;;
74371;SDS011;62885;51.374;6.170;2023-02-22T08:30:25;20.80;;;9.25;;
74371;SDS011;62885;51.374;6.170;2023-02-22T08:32:52;19.52;;;8.40;;
74371;SDS011;62885;51.374;6.170;2023-02-22T08:35:18;19.50;;;9.05;;
74371;SDS011;62885;51.374;6.170;2023-02-22T08:37:46;18.33;;;8.93;;
74371;SDS011;62885;51.374;6.170;2023-02-22T08:40:17;25.30;;;9.25;;
74371;SDS011;62885;51.374;6.170;2023-02-22T08:42:43;21.17;;;9.50;;
74371;SDS011;62885;51.374;6.170;2023-02-22T08:45:09;21.35;;;9.77;;
74371;SDS011;62885;51.374;6.170;2023-02-22T08:47:35;20.02;;;9.18;;
74371;SDS011;62885;51.374;6.170;2023-02-22T08:50:01;22.77;;;9.65;;
74371;SDS011;62885;51.374;6.170;2023-02-22T08:52:26;24.35;;;9.52;;
74371;SDS011;62885;51.374;6.170;2023-02-22T08:54:52;23.60;;;9.45;;
74371;SDS011;62885;51.374;6.170;2023-02-22T08:57:17;20.65;;;10.32;;
74371;SDS011;62885;51.374;6.170;2023-02-22T08:59:43;29.27;;;11.30;;
74371;SDS011;62885;51.374;6.170;2023-02-22T09:02:13;26.80;;;10.32;;
74371;SDS011;62885;51.374;6.170;2023-02-22T09:04:40;22.40;;;10.73;;
74371;SDS011;62885;51.374;6.170;2023-02-22T09:07:05;27.35;;;11.20;;
74371;SDS011;62885;51.374;6.170;2023-02-22T09:09:30;23.42;;;10.85;;
74371;SDS011;62885;51.374;6.170;2023-02-22T09:11:56;23.90;;;10.18;;
74371;SDS011;62885;51.374;6.170;2023-02-22T09:14:21;26.40;;;11.90;;
74371;SDS011;62885;51.374;6.170;2023-02-22T09:16:46;25.92;;;10.82;;
74371;SDS011;62885;51.374;6.170;2023-02-22T09:19:12;25.10;;;10.55;;
74371;SDS011;62885;51.374;6.170;2023-02-22T09:21:37;23.17;;;9.50;;
74371;SDS011;62885;51.374;6.170;2023-02-22T09:24:04;28.65;;;10.85;;
74371;SDS011;62885;51.374;6.170;2023-02-22T09:26:33;23.88;;;10.10;;
74371;SDS011;62885;51.374;6.170;2023-02-22T09:29:06;28.83;;;11.15;;
74371;SDS011;62885;51.374;6.170;2023-02-22T09:31:39;21.95;;;10.90;;
74371;SDS011;62885;51.374;6.170;2023-02-22T09:34:05;22.65;;;9.70;;
74371;SDS011;62885;51.374;6.170;2023-02-22T09:36:38;21.48;;;10.80;;
74371;SDS011;62885;51.374;6.170;2023-02-22T09:39:04;32.63;;;14.88;;
74371;SDS011;62885;51.374;6.170;2023-02-22T09:41:32;24.75;;;11.88;;
74371;SDS011;62885;51.374;6.170;2023-02-22T09:47:26;23.85;;;10.77;;
74371;SDS011;62885;51.374;6.170;2023-02-22T09:50:07;21.25;;;10.23;;
74371;SDS011;62885;51.374;6.170;2023-02-22T09:53:01;25.10;;;11.70;;
74371;SDS011;62885;51.374;6.170;2023-02-22T09:55:40;22.10;;;9.70;;
74371;SDS011;62885;51.374;6.170;2023-02-22T10:01:09;20.45;;;9.35;;
74371;SDS011;62885;51.374;6.170;2023-02-22T10:03:53;23.73;;;10.15;;
74371;SDS011;62885;51.374;6.170;2023-02-22T10:06:22;22.52;;;9.65;;
74371;SDS011;62885;51.374;6.170;2023-02-22T10:08:50;20.60;;;9.00;;
74371;SDS011;62885;51.374;6.170;2023-02-22T10:12:04;19.65;;;8.57;;
74371;SDS011;62885;51.374;6.170;2023-02-22T10:20:01;18.58;;;9.35;;
74371;SDS011;62885;51.374;6.170;2023-02-22T10:25:11;17.55;;;8.88;;
74371;SDS011;62885;51.374;6.170;2023-02-22T10:27:44;17.85;;;9.05;;
74371;SDS011;62885;51.374;6.170;2023-02-22T10:30:20;20.85;;;8.02;;
74371;SDS011;62885;51.374;6.170;2023-02-22T10:32:47;15.73;;;7.47;;
74371;SDS011;62885;51.374;6.170;2023-02-22T10:35:28;18.88;;;8.68;;
74371;SDS011;62885;51.374;6.170;2023-02-22T10:38:01;20.05;;;9.30;;
74371;SDS011;62885;51.374;6.170;2023-02-22T10:40:36;17.13;;;8.15;;
74371;SDS011;62885;51.374;6.170;2023-02-22T10:43:03;16.02;;;8.15;;
74371;SDS011;62885;51.374;6.170;2023-02-22T10:45:31;17.92;;;8.38;;
74371;SDS011;62885;51.374;6.170;2023-02-22T10:47:59;16.58;;;7.95;;
74371;SDS011;62885;51.374;6.170;2023-02-22T10:50:32;19.50;;;9.15;;
74371;SDS011;62885;51.374;6.170;2023-02-22T10:52:59;17.90;;;8.40;;
74371;SDS011;62885;51.374;6.170;2023-02-22T10:55:24;19.25;;;8.30;;
74371;SDS011;62885;51.374;6.170;2023-02-22T10:57:51;17.23;;;7.97;;
74371;SDS011;62885;51.374;6.170;2023-02-22T11:02:56;16.05;;;8.15;;
74371;SDS011;62885;51.374;6.170;2023-02-22T11:05:36;14.43;;;6.88;;
74371;SDS011;62885;51.374;6.170;2023-02-22T11:08:23;14.60;;;7.63;;
74371;SDS011;62885;51.374;6.170;2023-02-22T11:10:56;13.38;;;6.22;;
74371;SDS011;62885;51.374;6.170;2023-02-22T11:13:28;16.80;;;6.85;;
74371;SDS011;62885;51.374;6.170;2023-02-22T11:19:10;14.10;;;6.63;;
74371;SDS011;62885;51.374;6.170;2023-02-22T11:21:44;14.38;;;6.32;;
74371;SDS011;62885;51.374;6.170;2023-02-22T11:24:12;14.30;;;6.20;;
74371;SDS011;62885;51.374;6.170;2023-02-22T11:29:17;13.38;;;6.60;;
74371;SDS011;62885;51.374;6.170;2023-02-22T11:31:46;21.05;;;7.93;;
74371;SDS011;62885;51.374;6.170;2023-02-22T11:39:43;14.25;;;6.00;;
74371;SDS011;62885;51.374;6.170;2023-02-22T11:42:13;14.57;;;6.50;;
74371;SDS011;62885;51.374;6.170;2023-02-22T11:44:47;13.98;;;6.88;;
74371;SDS011;62885;51.374;6.170;2023-02-22T11:47:12;15.40;;;6.80;;
74371;SDS011;62885;51.374;6.170;2023-02-22T11:49:38;12.68;;;6.28;;
74371;SDS011;62885;51.374;6.170;2023-02-22T11:58:00;9.82;;;4.93;;
74371;SDS011;62885;51.374;6.170;2023-02-22T12:14:16;10.88;;;4.90;;
74371;SDS011;62885;51.374;6.170;2023-02-22T12:19:40;10.75;;;5.35;;
74371;SDS011;62885;51.374;6.170;2023-02-22T12:22:11;11.45;;;5.40;;
74371;SDS011;62885;51.374;6.170;2023-02-22T12:24:44;15.93;;;5.53;;
74371;SDS011;62885;51.374;6.170;2023-02-22T12:32:54;11.30;;;5.50;;
74371;SDS011;62885;51.374;6.170;2023-02-22T12:35:43;11.00;;;5.78;;
74371;SDS011;62885;51.374;6.170;2023-02-22T12:38:29;19.00;;;6.13;;
74371;SDS011;62885;51.374;6.170;2023-02-22T12:43:35;14.30;;;6.05;;
74371;SDS011;62885;51.374;6.170;2023-02-22T12:46:14;13.00;;;6.10;;
74371;SDS011;62885;51.374;6.170;2023-02-22T12:49:15;12.50;;;5.85;;
74371;SDS011;62885;51.374;6.170;2023-02-22T12:52:03;12.27;;;6.38;;
74371;SDS011;62885;51.374;6.170;2023-02-22T12:54:47;12.80;;;6.78;;
74371;SDS011;62885;51.374;6.170;2023-02-22T13:03:30;12.00;;;6.45;;
74371;SDS011;62885;51.374;6.170;2023-02-22T13:06:06;11.38;;;6.57;;
74371;SDS011;62885;51.374;6.170;2023-02-22T13:08:51;15.70;;;6.38;;
74371;SDS011;62885;51.374;6.170;2023-02-22T13:14:10;10.32;;;5.47;;
74371;SDS011;62885;51.374;6.170;2023-02-22T13:16:52;12.23;;;6.50;;
74371;SDS011;62885;51.374;6.170;2023-02-22T13:19:45;12.05;;;6.35;;
74371;SDS011;62885;51.374;6.170;2023-02-22T13:22:21;15.50;;;6.32;;
74371;SDS011;62885;51.374;6.170;2023-02-22T13:25:01;11.50;;;6.40;;
74371;SDS011;62885;51.374;6.170;2023-02-22T13:27:40;13.52;;;6.65;;
74371;SDS011;62885;51.374;6.170;2023-02-22T13:30:34;15.07;;;6.88;;
74371;SDS011;62885;51.374;6.170;2023-02-22T13:46:51;10.43;;;6.20;;
74371;SDS011;62885;51.374;6.170;2023-02-22T13:52:09;14.63;;;8.13;;
74371;SDS011;62885;51.374;6.170;2023-02-22T13:54:41;13.60;;;7.38;;
74371;SDS011;62885;51.374;6.170;2023-02-22T13:57:31;13.15;;;7.47;;
74371;SDS011;62885;51.374;6.170;2023-02-22T14:08:04;13.50;;;7.43;;
74371;SDS011;62885;51.374;6.170;2023-02-22T14:10:49;12.38;;;7.28;;
74371;SDS011;62885;51.374;6.170;2023-02-22T14:13:21;16.10;;;8.80;;
74371;SDS011;62885;51.374;6.170;2023-02-22T14:16:35;16.35;;;8.13;;
74371;SDS011;62885;51.374;6.170;2023-02-22T14:18:49;16.80;;;8.27;;
74371;SDS011;62885;51.374;6.170;2023-02-22T14:21:25;14.18;;;9.02;;
74371;SDS011;62885;51.374;6.170;2023-02-22T14:23:54;16.63;;;8.15;;
74371;SDS011;62885;51.374;6.170;2023-02-22T14:36:55;16.38;;;8.20;;
74371;SDS011;62885;51.374;6.170;2023-02-22T14:42:45;14.90;;;8.02;;
74371;SDS011;62885;51.374;6.170;2023-02-22T14:45:18;13.38;;;7.43;;
74371;SDS011;62885;51.374;6.170;2023-02-22T14:47:52;13.98;;;8.07;;
74371;SDS011;62885;51.374;6.170;2023-02-22T14:50:41;13.73;;;9.18;;
74371;SDS011;62885;51.374;6.170;2023-02-22T14:55:52;15.05;;;8.68;;
74371;SDS011;62885;51.374;6.170;2023-02-22T14:58:37;12.90;;;7.90;;
74371;SDS011;62885;51.374;6.170;2023-02-22T15:01:25;15.60;;;8.73;;
74371;SDS011;62885;51.374;6.170;2023-02-22T15:03:57;15.15;;;7.93;;
74371;SDS011;62885;51.374;6.170;2023-02-22T15:06:40;15.65;;;7.78;;
74371;SDS011;62885;51.374;6.170;2023-02-22T15:09:07;15.77;;;8.13;;
74371;SDS011;62885;51.374;6.170;2023-02-22T15:11:38;14.98;;;8.52;;
74371;SDS011;62885;51.374;6.170;2023-02-22T15:14:21;18.38;;;9.88;;
74371;SDS011;62885;51.374;6.170;2023-02-22T15:16:50;15.95;;;9.45;;
74371;SDS011;62885;51.374;6.170;2023-02-22T15:19:20;17.50;;;9.15;;
74371;SDS011;62885;51.374;6.170;2023-02-22T15:21:51;15.70;;;9.05;;
74371;SDS011;62885;51.374;6.170;2023-02-22T15:24:23;16.08;;;10.10;;
74371;SDS011;62885;51.374;6.170;2023-02-22T15:26:50;14.82;;;8.75;;
74371;SDS011;62885;51.374;6.170;2023-02-22T15:29:21;17.40;;;9.90;;
74371;SDS011;62885;51.374;6.170;2023-02-22T15:31:49;15.90;;;10.15;;
74371;SDS011;62885;51.374;6.170;2023-02-22T15:36:46;14.75;;;9.73;;
74371;SDS011;62885;51.374;6.170;2023-02-22T15:39:25;16.50;;;10.07;;
74371;SDS011;62885;51.374;6.170;2023-02-22T15:42:10;19.20;;;11.00;;
74371;SDS011;62885;51.374;6.170;2023-02-22T15:44:48;15.98;;;10.30;;
74371;SDS011;62885;51.374;6.170;2023-02-22T15:55:19;16.63;;;10.18;;
74371;SDS011;62885;51.374;6.170;2023-02-22T15:57:47;25.00;;;10.50;;
74371;SDS011;62885;51.374;6.170;2023-02-22T16:00:23;17.00;;;10.57;;
74371;SDS011;62885;51.374;6.170;2023-02-22T16:03:00;19.27;;;11.55;;
74371;SDS011;62885;51.374;6.170;2023-02-22T16:05:31;20.38;;;12.27;;
74371;SDS011;62885;51.374;6.170;2023-02-22T16:08:02;19.83;;;12.30;;
74371;SDS011;62885;51.374;6.170;2023-02-22T16:10:29;18.63;;;11.52;;
74371;SDS011;62885;51.374;6.170;2023-02-22T16:16:28;16.35;;;10.73;;
74371;SDS011;62885;51.374;6.170;2023-02-22T16:18:46;19.35;;;12.00;;
74371;SDS011;62885;51.374;6.170;2023-02-22T16:21:13;21.95;;;11.38;;
74371;SDS011;62885;51.374;6.170;2023-02-22T16:23:53;22.25;;;12.68;;
74371;SDS011;62885;51.374;6.170;2023-02-22T16:28:52;19.77;;;12.27;;
74371;SDS011;62885;51.374;6.170;2023-02-22T16:31:19;22.92;;;12.88;;
74371;SDS011;62885;51.374;6.170;2023-02-22T16:33:46;19.52;;;12.40;;
74371;SDS011;62885;51.374;6.170;2023-02-22T16:36:12;24.35;;;13.68;;
74371;SDS011;62885;51.374;6.170;2023-02-22T16:38:38;19.95;;;12.60;;
74371;SDS011;62885;51.374;6.170;2023-02-22T16:41:07;20.23;;;12.77;;
74371;SDS011;62885;51.374;6.170;2023-02-22T16:43:32;21.95;;;12.43;;
74371;SDS011;62885;51.374;6.170;2023-02-22T16:45:59;22.65;;;13.70;;
74371;SDS011;62885;51.374;6.170;2023-02-22T16:48:26;22.17;;;12.38;;
74371;SDS011;62885;51.374;6.170;2023-02-22T16:50:54;19.95;;;11.98;;
74371;SDS011;62885;51.374;6.170;2023-02-22T16:53:23;17.92;;;11.10;;
74371;SDS011;62885;51.374;6.170;2023-02-22T16:55:51;20.33;;;11.48;;
74371;SDS011;62885;51.374;6.170;2023-02-22T16:58:21;18.85;;;11.10;;
74371;SDS011;62885;51.374;6.170;2023-02-22T17:00:51;19.10;;;11.38;;
74371;SDS011;62885;51.374;6.170;2023-02-22T17:03:17;22.52;;;12.13;;
74371;SDS011;62885;51.374;6.170;2023-02-22T17:05:44;19.80;;;12.10;;
74371;SDS011;62885;51.374;6.170;2023-02-22T17:08:09;17.90;;;11.45;;
74371;SDS011;62885;51.374;6.170;2023-02-22T17:10:35;18.83;;;11.68;;
74371;SDS011;62885;51.374;6.170;2023-02-22T17:13:01;16.55;;;10.05;;
74371;SDS011;62885;51.374;6.170;2023-02-22T17:15:29;18.38;;;11.10;;
74371;SDS011;62885;51.374;6.170;2023-02-22T17:17:56;18.77;;;11.82;;
74371;SDS011;62885;51.374;6.170;2023-02-22T17:20:23;18.25;;;10.02;;
74371;SDS011;62885;51.374;6.170;2023-02-22T17:22:57;20.17;;;12.27;;